Time;durP1;ratioP1;P1;durP2;ratioP2;P2;SDS_P1;SDS_P2;PMS_P1;PMS_P2;Temp;Humidity;BMP_temperature;BMP_pressure;BME280_temperature;BME280_humidity;BME280_pressure;Samples;Min_cycle;Max_cycle;Signal;HPM_P1;HPM_P2
2023/09/14 00:00:29;;;;;;;0.77;0.43;;;12.10;99.90;;;;;;5036540;28;20451;-86
2023/09/14 00:02:55;;;;;;;5.13;1.48;;;12.00;99.90;;;;;;5019163;28;20040;-86
2023/09/14 00:05:21;;;;;;;5.35;1.30;;;12.10;99.90;;;;;;5019926;28;20095;-86
2023/09/14 00:07:46;;;;;;;0.90;0.40;;;12.10;99.90;;;;;;5018613;28;20522;-86
2023/09/14 00:10:12;;;;;;;1.73;0.68;;;12.10;99.90;;;;;;5020275;28;20037;-87
2023/09/14 00:12:38;;;;;;;1.35;0.30;;;12.00;99.90;;;;;;5036433;28;20045;-86
2023/09/14 00:15:04;;;;;;;0.77;0.40;;;11.90;99.90;;;;;;5020048;28;20041;-86
2023/09/14 00:17:30;;;;;;;3.17;0.90;;;11.80;99.90;;;;;;5035719;28;20488;-86
2023/09/14 00:19:55;;;;;;;3.72;1.10;;;11.80;99.90;;;;;;5036105;28;20044;-86
2023/09/14 00:22:21;;;;;;;0.98;0.28;;;11.80;99.90;;;;;;5035898;28;20094;-86
2023/09/14 00:24:46;;;;;;;1.45;0.50;;;11.80;99.90;;;;;;5035768;28;20116;-86
2023/09/14 00:27:12;;;;;;;3.50;0.80;;;11.70;99.90;;;;;;5018878;28;20496;-86
2023/09/14 00:29:37;;;;;;;3.88;1.17;;;11.70;99.90;;;;;;5019724;28;20037;-86
2023/09/14 00:32:03;;;;;;;6.72;2.40;;;11.70;99.90;;;;;;5019948;28;20049;-87
2023/09/14 00:34:29;;;;;;;4.03;1.20;;;11.70;99.90;;;;;;5036439;28;20496;-86
2023/09/14 00:36:54;;;;;;;10.82;2.22;;;11.80;99.90;;;;;;5034977;28;20123;-86
2023/09/14 00:39:20;;;;;;;5.93;2.03;;;11.80;99.90;;;;;;5035278;28;20044;-86
2023/09/14 00:41:46;;;;;;;2.70;1.30;;;11.90;99.90;;;;;;5035485;28;20522;-86
2023/09/14 00:44:11;;;;;;;3.90;1.38;;;11.80;99.90;;;;;;5035918;28;20172;-86
2023/09/14 00:46:40;;;;;;;6.10;1.33;;;11.70;99.90;;;;;;5035271;28;20044;-86
2023/09/14 00:49:06;;;;;;;7.53;2.97;;;11.70;99.90;;;;;;5033189;28;20044;-86
2023/09/14 00:51:32;;;;;;;8.77;2.40;;;11.80;99.90;;;;;;5017758;28;20045;-86
2023/09/14 00:53:58;;;;;;;1.92;0.77;;;11.90;99.90;;;;;;5035120;28;20053;-86
2023/09/14 00:56:26;;;;;;;3.70;1.00;;;11.90;99.90;;;;;;5034991;28;20052;-86
2023/09/14 00:58:53;;;;;;;1.60;0.90;;;11.70;99.90;;;;;;5034944;28;20041;-86
2023/09/14 01:01:19;;;;;;;1.25;0.70;;;11.80;99.90;;;;;;5019382;28;20504;-87
2023/09/14 01:03:45;;;;;;;1.55;0.43;;;11.80;99.90;;;;;;5018909;28;20086;-86
2023/09/14 01:06:11;;;;;;;1.52;0.50;;;11.70;99.90;;;;;;5035703;28;20091;-85
2023/09/14 01:08:37;;;;;;;2.42;0.60;;;11.60;99.90;;;;;;5034989;28;20111;-86
2023/09/14 01:11:03;;;;;;;2.95;0.50;;;11.50;99.90;;;;;;5035481;28;20524;-86
2023/09/14 01:13:56;;;;;;;1.35;0.60;;;11.50;99.90;;;;;;5019297;28;20047;-86
2023/09/14 01:16:24;;;;;;;;;;;11.40;99.90;;;;;;5019322;28;20041;-86
2023/09/14 01:19:00;;;;;;;3.47;1.15;;;11.40;99.90;;;;;;5035221;28;20411;-86
2023/09/14 01:21:50;;;;;;;1.92;0.85;;;11.40;99.90;;;;;;5035022;28;20033;-86
2023/09/14 01:24:57;;;;;;;1.80;0.70;;;11.40;99.90;;;;;;5035114;28;20049;-86
2023/09/14 01:27:23;;;;;;;2.10;0.75;;;11.40;99.90;;;;;;5010473;28;20052;-86
2023/09/14 01:29:48;;;;;;;5.93;1.73;;;11.30;99.90;;;;;;5028207;28;20056;-86
2023/09/14 01:32:14;;;;;;;7.63;2.10;;;11.40;99.90;;;;;;5035550;28;20068;-86
2023/09/14 01:34:40;;;;;;;3.65;1.13;;;11.50;99.90;;;;;;5035229;28;20064;-86
2023/09/14 01:37:06;;;;;;;9.82;2.45;;;11.40;99.90;;;;;;5034559;28;20495;-86
2023/09/14 01:39:33;;;;;;;4.07;0.90;;;11.40;99.90;;;;;;5030690;28;20045;-86
2023/09/14 01:41:59;;;;;;;14.15;2.50;;;11.40;99.90;;;;;;5031475;28;20043;-86
2023/09/14 01:44:26;;;;;;;26.33;1.50;;;11.20;99.90;;;;;;5035049;28;20048;-86
2023/09/14 01:46:53;;;;;;;16.95;1.15;;;11.10;99.90;;;;;;5051437;28;20048;-86
2023/09/14 01:49:19;;;;;;;0.30;0.30;;;11.10;99.90;;;;;;5033832;28;20124;-86
2023/09/14 01:51:44;;;;;;;1.95;0.50;;;11.00;99.90;;;;;;5034550;28;20132;-86
2023/09/14 01:54:10;;;;;;;3.20;1.25;;;11.00;99.90;;;;;;5034250;28;20461;-86
2023/09/14 01:56:36;;;;;;;3.08;0.80;;;11.00;99.90;;;;;;5034871;28;20033;-86
2023/09/14 01:59:02;;;;;;;3.90;1.20;;;11.00;99.90;;;;;;5034237;28;20040;-86
2023/09/14 02:01:27;;;;;;;1.65;0.40;;;11.10;99.90;;;;;;5017223;28;20408;-86
2023/09/14 02:03:53;;;;;;;1.50;0.60;;;11.10;99.90;;;;;;5034342;28;20048;-87
2023/09/14 02:06:20;;;;;;;6.35;1.80;;;11.00;99.90;;;;;;5017916;28;20052;-86
2023/09/14 02:08:46;;;;;;;2.85;1.00;;;11.10;99.90;;;;;;5033471;28;20471;-87
2023/09/14 02:11:13;;;;;;;3.63;1.25;;;11.10;99.90;;;;;;5034438;28;20492;-86
2023/09/14 02:13:39;;;;;;;1.23;0.47;;;11.00;99.90;;;;;;5017220;28;20036;-87
2023/09/14 02:16:05;;;;;;;4.72;1.30;;;11.00;99.90;;;;;;5033394;28;20051;-87
2023/09/14 02:18:31;;;;;;;20.48;1.27;;;11.10;99.90;;;;;;5017875;28;20542;-87
2023/09/14 02:20:56;;;;;;;6.15;0.77;;;11.00;99.90;;;;;;5033552;28;20484;-87
2023/09/14 02:23:22;;;;;;;1.25;0.45;;;10.90;99.90;;;;;;5033826;28;20040;-86
2023/09/14 02:25:49;;;;;;;1.08;0.50;;;10.90;99.90;;;;;;5034127;28;20411;-87
2023/09/14 02:28:15;;;;;;;1.90;0.63;;;10.90;99.90;;;;;;5033402;28;20392;-86
2023/09/14 02:30:41;;;;;;;0.32;0.30;;;10.90;99.90;;;;;;5032883;28;20542;-87
2023/09/14 02:33:10;;;;;;;0.17;0.17;;;10.80;99.90;;;;;;5032899;28;20037;-86
2023/09/14 02:35:36;;;;;;;1.55;0.50;;;10.80;99.90;;;;;;5015940;28;20048;-86
2023/09/14 02:38:02;;;;;;;1.02;0.50;;;10.70;99.90;;;;;;5032046;28;20048;-86
2023/09/14 02:40:29;;;;;;;1.52;0.22;;;10.70;99.90;;;;;;5032645;28;20037;-86
2023/09/14 02:42:55;;;;;;;1.27;0.20;;;10.70;99.90;;;;;;5017052;28;20044;-86
2023/09/14 02:45:20;;;;;;;0.43;0.30;;;10.50;99.90;;;;;;5034083;28;20041;-87
2023/09/14 02:47:46;;;;;;;0.35;0.17;;;10.50;99.90;;;;;;5032868;28;20515;-87
2023/09/14 02:50:11;;;;;;;2.47;0.63;;;10.40;99.90;;;;;;5033181;28;20134;-86
2023/09/14 02:52:37;;;;;;;1.95;0.75;;;10.50;99.90;;;;;;5032417;28;20051;-86
2023/09/14 02:55:03;;;;;;;2.47;1.00;;;10.40;99.90;;;;;;5016319;28;20045;-86
2023/09/14 02:57:29;;;;;;;3.25;1.08;;;10.40;99.90;;;;;;5016499;28;20106;-86
2023/09/14 02:59:55;;;;;;;1.75;0.60;;;10.40;99.90;;;;;;5016680;28;20491;-86
2023/09/14 03:02:22;;;;;;;1.00;0.60;;;10.40;99.90;;;;;;5016279;28;20401;-86
2023/09/14 03:04:47;;;;;;;1.35;0.73;;;10.40;99.90;;;;;;5033173;28;20094;-87
2023/09/14 03:07:13;;;;;;;1.75;0.70;;;10.40;99.90;;;;;;5032681;28;20044;-86
2023/09/14 03:09:38;;;;;;;2.40;0.70;;;10.40;99.90;;;;;;5032079;28;20047;-86
2023/09/14 03:12:04;;;;;;;4.18;1.13;;;10.40;99.90;;;;;;5032501;28;20049;-85
2023/09/14 03:14:30;;;;;;;2.08;0.57;;;10.40;99.90;;;;;;5016405;28;20041;-86
2023/09/14 03:16:57;;;;;;;0.98;0.50;;;10.40;99.90;;;;;;5016526;28;20041;-86
2023/09/14 03:19:23;;;;;;;2.33;0.82;;;10.40;99.90;;;;;;5032120;28;20045;-86
2023/09/14 03:21:49;;;;;;;4.43;1.52;;;10.40;99.90;;;;;;5032747;28;20040;-86
2023/09/14 03:24:14;;;;;;;3.33;1.10;;;10.40;99.90;;;;;;5032664;28;20568;-86
2023/09/14 03:26:40;;;;;;;1.98;0.75;;;10.50;99.90;;;;;;5032801;28;20047;-86
2023/09/14 03:29:06;;;;;;;1.25;0.40;;;10.50;99.90;;;;;;5032234;28;20126;-86
2023/09/14 03:31:31;;;;;;;3.70;1.10;;;10.40;99.90;;;;;;5016859;28;20037;-86
2023/09/14 03:33:57;;;;;;;4.90;1.05;;;10.40;99.90;;;;;;5032966;28;20098;-86
2023/09/14 03:36:22;;;;;;;4.28;0.90;;;10.30;99.90;;;;;;5016405;28;20041;-86
2023/09/14 03:38:48;;;;;;;3.10;0.98;;;10.30;99.90;;;;;;5015634;28;20052;-86
2023/09/14 03:41:14;;;;;;;4.15;1.00;;;10.30;99.90;;;;;;5032947;28;20044;-86
2023/09/14 03:43:41;;;;;;;3.08;0.80;;;10.20;99.90;;;;;;5032889;28;20043;-86
2023/09/14 03:46:07;;;;;;;3.97;1.08;;;10.20;99.90;;;;;;5033181;28;20059;-86
2023/09/14 03:48:33;;;;;;;2.85;0.80;;;10.20;99.90;;;;;;5032694;28;20045;-86
2023/09/14 03:51:00;;;;;;;3.05;1.17;;;10.20;99.90;;;;;;5032215;28;20511;-86
2023/09/14 03:53:26;;;;;;;5.40;1.17;;;10.20;99.90;;;;;;5016413;28;20082;-86
2023/09/14 03:55:53;;;;;;;2.63;0.85;;;10.20;99.90;;;;;;5015284;28;20037;-86
2023/09/14 03:58:19;;;;;;;3.38;1.20;;;10.20;99.90;;;;;;5031495;28;20456;-86
2023/09/14 04:00:44;;;;;;;9.95;1.23;;;10.20;99.90;;;;;;5031202;28;20048;-86
2023/09/14 04:03:10;;;;;;;3.55;0.90;;;10.20;99.90;;;;;;5031510;28;20139;-86
2023/09/14 04:05:36;;;;;;;2.58;0.90;;;10.20;99.90;;;;;;5031545;28;20713;-86
2023/09/14 04:08:02;;;;;;;5.07;1.20;;;10.20;99.90;;;;;;5014823;28;20397;-86
2023/09/14 04:10:28;;;;;;;2.67;0.90;;;10.10;99.90;;;;;;5028015;28;20041;-86
2023/09/14 04:13:30;;;;;;;1.83;0.80;;;10.20;99.90;;;;;;5027455;28;20187;-86
2023/09/14 04:15:57;;;;;;;1.92;0.77;;;10.10;99.90;;;;;;5014889;28;20040;-86
2023/09/14 04:18:23;;;;;;;4.78;1.27;;;10.10;99.90;;;;;;5031497;28;20048;-86
2023/09/14 04:20:50;;;;;;;2.88;1.13;;;10.10;99.90;;;;;;5015323;28;20037;-86
2023/09/14 04:23:16;;;;;;;3.58;1.25;;;10.10;99.90;;;;;;5014517;28;20041;-86
2023/09/14 04:25:44;;;;;;;4.25;1.20;;;10.10;99.90;;;;;;5034055;28;20086;-86
2023/09/14 04:28:21;;;;;;;4.47;1.13;;;10.10;99.90;;;;;;5034843;28;20110;-86
2023/09/14 04:30:54;;;;;;;3.45;1.20;;;10.00;99.90;;;;;;5035431;28;20158;-86
2023/09/14 04:33:19;;;;;;;4.15;1.00;;;10.00;99.90;;;;;;5034967;28;20053;-85
2023/09/14 04:35:45;;;;;;;8.10;2.10;;;10.00;99.90;;;;;;5018481;28;20037;-86
2023/09/14 04:38:12;;;;;;;7.03;2.60;;;10.00;99.90;;;;;;5034400;28;20044;-86
2023/09/14 04:40:40;;;;;;;3.95;1.15;;;10.10;99.90;;;;;;5018855;28;20037;-86
2023/09/14 04:43:05;;;;;;;4.05;1.08;;;10.10;99.90;;;;;;5035526;28;20037;-86
2023/09/14 04:45:32;;;;;;;3.47;1.27;;;10.00;99.90;;;;;;5018934;28;20043;-86
2023/09/14 04:47:59;;;;;;;3.95;1.00;;;10.00;99.90;;;;;;5035009;28;20045;-87
2023/09/14 04:50:25;;;;;;;3.67;1.10;;;10.00;99.90;;;;;;5018518;28;20459;-86
2023/09/14 04:52:50;;;;;;;6.72;1.30;;;10.00;99.90;;;;;;5034509;28;20095;-86
2023/09/14 04:55:16;;;;;;;4.57;1.30;;;10.00;99.90;;;;;;5019011;28;20037;-86
2023/09/14 04:57:42;;;;;;;2.20;1.00;;;10.00;99.90;;;;;;5034740;28;20091;-86
2023/09/14 05:00:12;;;;;;;7.53;1.70;;;10.00;99.90;;;;;;5035565;28;20036;-87
2023/09/14 05:02:38;;;;;;;5.07;1.13;;;10.00;99.90;;;;;;5035973;28;20408;-86
2023/09/14 05:05:06;;;;;;;4.20;0.80;;;10.00;99.90;;;;;;5018832;28;20051;-86
2023/09/14 05:07:32;;;;;;;6.90;1.40;;;10.00;99.90;;;;;;5035371;28;20392;-87
2023/09/14 05:09:57;;;;;;;3.13;1.15;;;10.00;99.90;;;;;;5034888;28;20032;-86
2023/09/14 05:12:23;;;;;;;2.55;1.17;;;10.00;99.90;;;;;;5018957;28;20037;-87
2023/09/14 05:14:49;;;;;;;4.45;1.20;;;10.00;99.90;;;;;;5034866;28;20098;-86
2023/09/14 05:17:14;;;;;;;5.70;1.13;;;10.00;99.90;;;;;;5018781;28;20037;-86
2023/09/14 05:19:41;;;;;;;7.18;1.85;;;10.00;99.90;;;;;;5018962;28;20068;-86
2023/09/14 05:22:07;;;;;;;4.80;1.35;;;10.00;99.90;;;;;;5018873;28;20070;-86
2023/09/14 05:24:32;;;;;;;5.53;1.85;;;10.00;99.90;;;;;;5034467;28;20444;-86
2023/09/14 05:26:59;;;;;;;4.88;1.58;;;10.00;99.90;;;;;;5031655;28;20037;-85
2023/09/14 05:29:25;;;;;;;5.97;1.30;;;10.00;99.90;;;;;;5034589;28;20045;-86
2023/09/14 05:31:51;;;;;;;5.47;1.25;;;10.00;99.90;;;;;;5018433;28;20154;-86
2023/09/14 05:34:16;;;;;;;3.97;1.13;;;10.00;99.90;;;;;;5034959;28;20041;-86
2023/09/14 05:36:42;;;;;;;5.15;1.50;;;10.00;99.90;;;;;;5017571;28;20063;-85
2023/09/14 05:39:08;;;;;;;7.30;1.60;;;10.00;99.90;;;;;;5017537;28;20041;-86
2023/09/14 05:41:34;;;;;;;3.10;1.20;;;10.00;99.90;;;;;;5034731;28;20041;-87
2023/09/14 05:44:03;;;;;;;2.60;1.05;;;10.00;99.90;;;;;;5034188;28;20568;-86
2023/09/14 05:46:29;;;;;;;3.13;1.00;;;10.00;99.90;;;;;;5017780;28;20033;-86
2023/09/14 05:48:54;;;;;;;3.50;1.25;;;10.00;99.90;;;;;;5017447;28;20048;-86
2023/09/14 05:51:20;;;;;;;3.55;1.20;;;10.00;99.90;;;;;;5034295;28;20048;-86
2023/09/14 05:53:46;;;;;;;6.10;1.45;;;10.00;99.90;;;;;;5018259;28;20079;-86
2023/09/14 05:56:12;;;;;;;2.92;1.02;;;10.00;99.90;;;;;;5034386;28;20500;-86
2023/09/14 05:58:37;;;;;;;1.77;0.70;;;10.00;99.90;;;;;;5033417;28;20044;-87
2023/09/14 06:01:04;;;;;;;2.20;0.65;;;10.00;99.90;;;;;;5018063;28;20087;-86
2023/09/14 06:03:30;;;;;;;3.30;1.05;;;10.00;99.90;;;;;;5034386;28;20462;-86
2023/09/14 06:05:56;;;;;;;4.78;1.50;;;10.10;99.90;;;;;;5034182;28;20049;-86
2023/09/14 06:08:21;;;;;;;5.05;1.10;;;10.10;99.90;;;;;;5033612;28;20040;-87
2023/09/14 06:10:47;;;;;;;2.67;1.00;;;10.10;99.90;;;;;;5033636;28;20518;-86
2023/09/14 06:13:12;;;;;;;7.50;2.00;;;10.10;99.90;;;;;;5033271;28;20039;-86
2023/09/14 06:15:38;;;;;;;4.03;1.35;;;10.30;99.90;;;;;;5033490;28;20049;-86
2023/09/14 06:18:04;;;;;;;3.92;0.82;;;10.40;99.90;;;;;;5016714;28;20114;-86
2023/09/14 06:20:29;;;;;;;1.90;0.60;;;10.30;99.90;;;;;;5034119;28;20076;-87
2023/09/14 06:22:55;;;;;;;2.33;0.93;;;10.30;99.90;;;;;;5033655;28;20045;-86
2023/09/14 06:25:21;;;;;;;6.57;2.58;;;10.30;99.90;;;;;;5033680;28;20072;-86
2023/09/14 06:27:46;;;;;;;3.03;0.85;;;10.40;99.90;;;;;;5033953;28;20040;-87
2023/09/14 06:30:12;;;;;;;2.97;0.93;;;10.40;99.90;;;;;;5017338;28;20037;-86
2023/09/14 06:32:37;;;;;;;3.13;0.95;;;10.50;99.90;;;;;;5017397;28;20120;-88
2023/09/14 06:35:04;;;;;;;3.83;1.02;;;10.50;99.90;;;;;;5033877;28;20040;-90
2023/09/14 06:37:29;;;;;;;4.47;1.20;;;10.50;99.90;;;;;;5017081;28;20045;-88
2023/09/14 06:39:56;;;;;;;5.63;1.60;;;10.60;99.90;;;;;;5017747;28;20396;-88
2023/09/14 06:42:22;;;;;;;6.78;2.90;;;10.70;99.90;;;;;;5017871;28;20037;-87
2023/09/14 06:44:47;;;;;;;7.32;2.55;;;10.80;99.90;;;;;;5033465;28;20174;-88
2023/09/14 06:47:13;;;;;;;4.93;1.20;;;11.00;99.90;;;;;;5017381;28;20432;-88
2023/09/14 06:49:38;;;;;;;2.42;1.30;;;11.00;99.90;;;;;;5034218;28;20415;-88
2023/09/14 06:52:04;;;;;;;5.65;1.73;;;10.90;99.90;;;;;;5033495;28;20041;-88
2023/09/14 06:54:30;;;;;;;4.25;1.42;;;11.00;99.90;;;;;;5034124;28;20047;-88
2023/09/14 06:56:55;;;;;;;6.22;2.53;;;11.10;99.90;;;;;;5017360;28;20045;-88
2023/09/14 06:59:21;;;;;;;5.40;2.05;;;11.10;99.90;;;;;;5016802;28;20036;-88
2023/09/14 07:01:47;;;;;;;8.93;2.85;;;11.20;99.90;;;;;;5033707;28;20091;-87
2023/09/14 07:04:12;;;;;;;6.57;2.35;;;11.30;99.90;;;;;;5032620;28;20045;-87
2023/09/14 07:06:38;;;;;;;4.35;1.85;;;11.40;99.90;;;;;;5028683;28;20042;-88
2023/09/14 07:09:06;;;;;;;6.22;2.58;;;11.50;99.90;;;;;;5033571;28;20107;-88
2023/09/14 07:11:32;;;;;;;6.70;2.30;;;11.50;99.90;;;;;;5022524;28;20044;-87
2023/09/14 07:13:58;;;;;;;9.10;2.55;;;11.60;99.90;;;;;;5042229;28;20033;-88
2023/09/14 07:16:23;;;;;;;12.95;9.55;;;11.70;99.90;;;;;;5038357;28;20420;-88
2023/09/14 07:18:49;;;;;;;15.10;6.35;;;11.80;99.90;;;;;;5027817;28;20435;-88
2023/09/14 07:21:14;;;;;;;12.63;6.57;;;12.00;99.90;;;;;;5031850;28;20091;-88
2023/09/14 07:23:42;;;;;;;20.85;18.70;;;12.00;99.90;;;;;;5033534;28;20048;-88
2023/09/14 07:26:07;;;;;;;22.52;8.68;;;12.20;99.90;;;;;;5033082;28;20088;-88
2023/09/14 07:28:33;;;;;;;28.73;14.15;;;12.30;99.90;;;;;;5016130;28;20117;-88
2023/09/14 07:31:03;;;;;;;25.13;16.35;;;12.40;99.90;;;;;;5029877;28;20081;-88
2023/09/14 07:33:29;;;;;;;32.78;20.48;;;12.40;99.90;;;;;;5025397;28;20044;-88
2023/09/14 07:35:55;;;;;;;35.25;24.13;;;12.60;99.90;;;;;;5016740;28;20045;-88
2023/09/14 07:38:21;;;;;;;25.15;18.65;;;12.60;99.90;;;;;;5030873;28;20045;-88
2023/09/14 07:40:48;;;;;;;18.70;12.95;;;12.70;99.90;;;;;;5032680;28;20048;-88
2023/09/14 07:43:14;;;;;;;24.17;19.63;;;12.80;99.90;;;;;;5016260;28;20512;-88
2023/09/14 07:45:39;;;;;;;15.95;7.63;;;13.00;99.90;;;;;;5033298;28;20116;-87
2023/09/14 07:48:06;;;;;;;15.15;8.55;;;13.10;99.90;;;;;;5015551;28;20516;-88
2023/09/14 07:50:39;;;;;;;11.98;6.07;;;13.20;99.90;;;;;;5032632;28;20065;-88
2023/09/14 07:53:08;;;;;;;10.07;3.40;;;13.30;99.90;;;;;;5014685;28;20500;-89
2023/09/14 07:55:34;;;;;;;13.23;3.03;;;13.40;99.90;;;;;;5038214;28;20037;-88
2023/09/14 07:57:59;;;;;;;12.10;3.00;;;13.40;99.90;;;;;;5032266;28;20120;-88
2023/09/14 08:00:25;;;;;;;8.25;2.90;;;13.50;99.90;;;;;;5036357;28;20040;-88
2023/09/14 08:02:51;;;;;;;12.90;5.30;;;13.50;99.90;;;;;;5020626;28;20540;-88
2023/09/14 08:05:17;;;;;;;9.95;3.28;;;13.70;99.90;;;;;;5036857;28;20132;-88
2023/09/14 08:07:43;;;;;;;12.45;4.00;;;13.80;99.90;;;;;;5036757;28;20072;-88
2023/09/14 08:10:09;;;;;;;8.38;2.15;;;13.90;99.90;;;;;;5019827;28;20039;-88
2023/09/14 08:12:37;;;;;;;8.57;2.58;;;14.00;99.90;;;;;;5033349;28;20118;-88
2023/09/14 08:15:07;;;;;;;10.30;2.83;;;14.10;99.90;;;;;;5036885;28;20068;-88
2023/09/14 08:17:33;;;;;;;11.13;3.65;;;14.10;99.90;;;;;;5019865;28;20041;-88
2023/09/14 08:19:59;;;;;;;12.82;3.70;;;14.30;99.90;;;;;;5033314;28;20048;-86
2023/09/14 08:22:25;;;;;;;11.18;3.38;;;14.40;99.90;;;;;;5036702;28;20135;-86
2023/09/14 08:24:51;;;;;;;9.57;1.90;;;14.50;99.90;;;;;;5036281;28;20125;-86
2023/09/14 08:27:17;;;;;;;9.73;3.33;;;14.60;99.90;;;;;;5036764;28;20033;-87
2023/09/14 08:29:43;;;;;;;12.07;3.90;;;14.60;99.90;;;;;;5036418;28;20500;-87
2023/09/14 08:32:11;;;;;;;10.00;3.00;;;14.80;99.90;;;;;;5036558;28;20106;-86
2023/09/14 08:34:37;;;;;;;8.10;2.13;;;14.90;99.90;;;;;;5036824;28;20044;-86
2023/09/14 08:37:03;;;;;;;10.32;2.67;;;14.90;99.90;;;;;;5033559;28;20048;-86
2023/09/14 08:39:29;;;;;;;8.15;1.92;;;15.00;99.90;;;;;;5035811;28;20130;-87
2023/09/14 08:41:54;;;;;;;6.82;1.70;;;15.10;99.90;;;;;;5020251;28;20068;-86
2023/09/14 08:44:22;;;;;;;14.45;4.07;;;15.10;99.90;;;;;;5036619;28;20051;-86
2023/09/14 08:46:48;;;;;;;12.88;3.50;;;15.20;99.90;;;;;;5019326;28;20071;-86
2023/09/14 08:49:18;;;;;;;7.35;1.73;;;15.40;99.90;;;;;;5035850;28;20519;-87
2023/09/14 08:51:48;;;;;;;5.97;1.77;;;15.40;99.90;;;;;;5036167;28;20415;-86
2023/09/14 08:54:14;;;;;;;9.13;2.75;;;15.50;99.90;;;;;;5019815;28;20037;-87
2023/09/14 08:56:41;;;;;;;15.50;2.05;;;15.60;99.90;;;;;;5016565;28;20037;-87
2023/09/14 08:59:11;;;;;;;8.77;2.28;;;15.60;99.90;;;;;;5018572;28;20068;-87
2023/09/14 09:01:37;;;;;;;12.75;3.00;;;15.70;99.90;;;;;;5036578;28;20036;-86
2023/09/14 09:04:03;;;;;;;8.82;2.33;;;15.70;99.90;;;;;;5019763;28;20488;-86
2023/09/14 09:06:29;;;;;;;11.27;2.50;;;15.90;99.90;;;;;;5032607;28;20631;-87
2023/09/14 09:08:56;;;;;;;9.45;2.40;;;15.90;99.90;;;;;;5035312;28;20040;-86
2023/09/14 09:11:22;;;;;;;8.25;1.75;;;16.00;99.90;;;;;;5035736;28;20044;-87
2023/09/14 09:13:49;;;;;;;7.47;1.40;;;16.00;99.90;;;;;;5035711;28;20041;-87
2023/09/14 09:16:15;;;;;;;8.65;1.60;;;16.00;99.90;;;;;;5019711;28;20055;-89
2023/09/14 09:18:59;;;;;;;12.70;2.58;;;16.20;99.90;;;;;;5035354;28;20037;-88
2023/09/14 09:21:30;;;;;;;12.05;3.00;;;16.30;99.90;;;;;;5027727;28;20124;-88
2023/09/14 09:23:57;;;;;;;11.90;2.83;;;16.30;99.90;;;;;;5019530;28;20041;-88
2023/09/14 09:26:24;;;;;;;7.50;1.98;;;16.50;99.90;;;;;;5035161;28;20607;-88
2023/09/14 09:28:49;;;;;;;6.03;1.25;;;16.50;99.90;;;;;;5035028;28;20037;-89
2023/09/14 09:31:16;;;;;;;11.45;3.13;;;16.60;99.90;;;;;;5035509;28;20681;-89
2023/09/14 09:33:47;;;;;;;7.32;1.65;;;16.60;99.90;;;;;;5018543;28;20037;-89
2023/09/14 09:36:15;;;;;;;13.20;2.92;;;16.70;99.90;;;;;;5052348;28;20049;-89
2023/09/14 09:38:40;;;;;;;9.95;2.70;;;16.80;99.90;;;;;;5018053;28;20041;-89
2023/09/14 09:41:12;;;;;;;11.15;2.63;;;16.90;99.90;;;;;;5035337;28;20120;-89
2023/09/14 09:43:41;;;;;;;13.80;3.22;;;17.00;99.90;;;;;;5032330;28;20045;-89
2023/09/14 09:46:14;;;;;;;10.00;2.63;;;17.10;99.90;;;;;;5032383;28;20037;-89
2023/09/14 09:48:41;;;;;;;6.55;1.83;;;17.10;99.90;;;;;;5031568;28;20069;-88
2023/09/14 09:51:07;;;;;;;10.93;2.40;;;17.10;99.90;;;;;;5016130;28;20046;-88
2023/09/14 09:53:32;;;;;;;8.02;1.92;;;17.20;99.90;;;;;;5035385;28;20037;-90
2023/09/14 09:55:58;;;;;;;12.02;2.60;;;17.20;99.90;;;;;;5018731;28;20411;-90
2023/09/14 09:58:37;;;;;;;9.10;2.42;;;17.30;99.90;;;;;;5033937;28;20041;-89
2023/09/14 10:01:03;;;;;;;8.98;2.75;;;17.40;99.90;;;;;;5018050;28;20083;-89
2023/09/14 10:03:33;;;;;;;10.32;2.47;;;17.50;99.90;;;;;;5018625;28;20044;-89
2023/09/14 10:05:58;;;;;;;8.50;1.73;;;17.60;99.90;;;;;;5034617;28;20107;-89
2023/09/14 10:08:24;;;;;;;11.48;2.60;;;17.70;99.90;;;;;;5017599;28;20626;-88
2023/09/14 10:10:51;;;;;;;8.98;2.50;;;17.80;99.90;;;;;;5017647;28;20033;-89
2023/09/14 10:13:24;;;;;;;12.05;2.60;;;17.90;99.90;;;;;;5017403;28;20040;-89
2023/09/14 10:15:54;;;;;;;10.82;2.78;;;17.90;98.90;;;;;;5015218;28;20061;-89
2023/09/14 10:18:22;;;;;;;9.68;2.35;;;17.90;99.10;;;;;;5033853;28;20135;-89
2023/09/14 10:20:51;;;;;;;9.55;2.40;;;18.00;98.50;;;;;;5034493;28;20068;-89
2023/09/14 10:23:19;;;;;;;9.75;2.25;;;18.00;96.40;;;;;;5017332;28;20100;-89
2023/09/14 10:25:47;;;;;;;8.98;2.72;;;17.90;96.30;;;;;;5034291;28;20041;-90
2023/09/14 10:28:14;;;;;;;9.45;2.20;;;18.00;96.60;;;;;;5032396;28;20504;-89
2023/09/14 10:30:42;;;;;;;9.05;2.80;;;18.10;99.90;;;;;;5036780;28;20032;-89
2023/09/14 10:33:09;;;;;;;10.38;2.45;;;18.20;99.30;;;;;;5023815;28;20076;-88
2023/09/14 10:35:38;;;;;;;10.30;2.72;;;18.20;98.50;;;;;;5018080;28;20048;-89
2023/09/14 10:38:06;;;;;;;9.00;2.80;;;18.30;97.20;;;;;;5033890;28;20539;-90
2023/09/14 10:40:35;;;;;;;12.15;2.50;;;18.40;98.50;;;;;;5033413;28;20048;-90
2023/09/14 10:43:01;;;;;;;9.27;2.30;;;18.60;96.80;;;;;;5017502;28;20052;-90
2023/09/14 10:45:33;;;;;;;10.30;2.30;;;18.60;94.90;;;;;;5017551;28;20048;-88
2023/09/14 10:48:01;;;;;;;9.32;2.88;;;18.70;93.90;;;;;;5033282;28;20037;-89
2023/09/14 10:50:27;;;;;;;10.95;2.65;;;18.80;93.30;;;;;;5033979;28;20541;-90
2023/09/14 10:52:53;;;;;;;8.32;2.05;;;18.80;91.50;;;;;;5034196;28;20041;-90
2023/09/14 10:55:24;;;;;;;11.07;2.75;;;18.80;91.90;;;;;;5033042;28;20124;-91
2023/09/14 10:57:51;;;;;;;9.10;2.50;;;18.80;91.00;;;;;;5016059;28;20052;-90
2023/09/14 11:00:36;;;;;;;7.70;2.50;;;18.90;91.70;;;;;;5032922;28;20037;-90
2023/09/14 11:03:02;;;;;;;9.05;2.55;;;19.10;89.70;;;;;;5025301;28;20045;-89
2023/09/14 11:05:48;;;;;;;8.48;2.53;;;19.10;91.70;;;;;;5016715;28;20090;-90
2023/09/14 11:08:17;;;;;;;8.18;2.20;;;19.10;91.00;;;;;;5016315;28;20044;-90
2023/09/14 11:10:56;;;;;;;9.43;2.65;;;19.10;90.30;;;;;;5033855;28;20455;-89
2023/09/14 11:13:22;;;;;;;10.23;2.28;;;19.30;90.60;;;;;;5016804;28;20495;-90
2023/09/14 11:16:13;;;;;;;9.48;2.55;;;19.40;91.00;;;;;;5029934;28;20044;-90
2023/09/14 11:18:45;;;;;;;11.13;2.42;;;19.50;86.80;;;;;;5027564;28;20412;-89
2023/09/14 11:21:32;;;;;;;8.70;2.50;;;19.60;89.70;;;;;;5033693;28;20041;-90
2023/09/14 11:24:05;;;;;;;10.48;2.47;;;19.80;88.60;;;;;;5041059;28;20595;-89
2023/09/14 11:26:32;;;;;;;8.32;2.75;;;19.70;88.10;;;;;;5038653;28;20068;-90
2023/09/14 11:28:58;;;;;;;10.93;2.58;;;19.70;85.60;;;;;;5038195;28;20082;-90
2023/09/14 11:31:34;;;;;;;8.43;2.33;;;19.70;83.80;;;;;;5038650;28;20037;-90
2023/09/14 11:34:12;;;;;;;10.70;2.58;;;19.70;84.40;;;;;;5024960;28;20033;-90
2023/09/14 11:36:38;;;;;;;10.07;2.40;;;19.70;82.00;;;;;;5043297;28;20049;-90
2023/09/14 11:39:09;;;;;;;10.15;2.80;;;19.70;81.80;;;;;;5042473;28;20407;-90
2023/09/14 11:41:55;;;;;;;10.02;2.80;;;19.80;81.00;;;;;;5042949;28;20244;-90
2023/09/14 11:44:21;;;;;;;8.93;2.70;;;20.00;85.00;;;;;;5045253;28;20102;-90
2023/09/14 11:46:48;;;;;;;7.85;2.17;;;20.00;83.70;;;;;;5042759;28;20500;-90
2023/09/14 11:49:19;;;;;;;9.30;2.30;;;20.00;82.60;;;;;;5041714;28;20098;-90
2023/09/14 11:51:44;;;;;;;10.90;2.60;;;20.00;79.60;;;;;;5058481;28;20507;-90
2023/09/14 11:54:10;;;;;;;7.53;2.45;;;20.10;78.30;;;;;;5043565;28;20033;-90
2023/09/14 11:56:36;;;;;;;10.50;2.67;;;20.10;77.40;;;;;;5050362;28;20028;-90
2023/09/14 11:59:02;;;;;;;9.25;2.72;;;20.20;76.90;;;;;;5041099;28;20037;-90
2023/09/14 12:01:35;;;;;;;10.57;2.65;;;20.20;77.40;;;;;;5026406;28;20492;-90
2023/09/14 12:04:04;;;;;;;7.28;2.20;;;20.20;76.90;;;;;;5022156;28;20033;-90
2023/09/14 12:06:30;;;;;;;7.13;2.15;;;20.20;75.80;;;;;;5038047;28;20120;-89
2023/09/14 12:08:57;;;;;;;8.13;2.35;;;20.10;75.60;;;;;;5030210;28;20040;-89
2023/09/14 12:11:22;;;;;;;7.70;2.38;;;20.10;76.90;;;;;;5021564;28;20040;-90
2023/09/14 12:13:53;;;;;;;8.63;2.70;;;20.10;77.40;;;;;;5021597;28;20032;-89
2023/09/14 12:16:29;;;;;;;9.20;2.97;;;20.10;78.20;;;;;;5037114;28;20037;-88
2023/09/14 12:18:55;;;;;;;8.23;2.80;;;20.20;77.50;;;;;;5035930;28;20041;-89
2023/09/14 12:21:23;;;;;;;7.43;2.50;;;20.30;77.90;;;;;;5019786;28;20091;-89
2023/09/14 12:23:50;;;;;;;7.93;2.47;;;20.30;75.20;;;;;;5036912;28;20095;-89
2023/09/14 12:26:18;;;;;;;8.57;2.50;;;20.30;76.50;;;;;;5020263;28;20041;-89
2023/09/14 12:28:49;;;;;;;9.88;2.63;;;20.30;75.80;;;;;;5036404;28;20037;-89
2023/09/14 12:31:15;;;;;;;8.65;2.30;;;20.40;75.80;;;;;;5036103;28;20051;-90
2023/09/14 12:33:43;;;;;;;8.07;2.33;;;20.40;75.50;;;;;;5019914;28;20593;-90
2023/09/14 12:36:11;;;;;;;8.25;2.22;;;20.50;75.30;;;;;;5020069;28;20048;-89
2023/09/14 12:38:37;;;;;;;9.27;2.63;;;20.70;75.40;;;;;;5035590;28;20052;-89
2023/09/14 12:41:05;;;;;;;9.15;2.40;;;20.90;75.30;;;;;;5019862;28;20120;-90
2023/09/14 12:43:31;;;;;;;9.30;2.58;;;21.20;73.90;;;;;;5036648;28;20051;-89
2023/09/14 12:45:58;;;;;;;8.38;2.33;;;21.30;73.10;;;;;;5018841;28;20048;-90